sensor_id;sensor_type;location;lat;lon;timestamp;P1;durP1;ratioP1;P2;durP2;ratioP2
36797;SDS011;22748;8.426;99.512;2022-12-01T00:01:53;13.20;;;11.98;;
36797;SDS011;22748;8.426;99.512;2022-12-01T00:04:26;13.90;;;12.30;;
36797;SDS011;22748;8.426;99.512;2022-12-01T00:06:55;14.95;;;12.90;;
36797;SDS011;22748;8.426;99.512;2022-12-01T00:09:28;12.80;;;11.60;;
36797;SDS011;22748;8.426;99.512;2022-12-01T00:12:10;14.93;;;13.50;;
36797;SDS011;22748;8.426;99.512;2022-12-01T00:14:41;13.68;;;12.38;;
36797;SDS011;22748;8.426;99.512;2022-12-01T00:17:22;15.48;;;12.48;;
36797;SDS011;22748;8.426;99.512;2022-12-01T00:19:53;32.20;;;14.73;;
36797;SDS011;22748;8.426;99.512;2022-12-01T00:22:27;27.95;;;13.85;;
36797;SDS011;22748;8.426;99.512;2022-12-01T00:25:00;29.20;;;13.73;;
36797;SDS011;22748;8.426;99.512;2022-12-01T00:27:29;18.48;;;12.65;;
36797;SDS011;22748;8.426;99.512;2022-12-01T00:29:59;14.82;;;12.65;;
36797;SDS011;22748;8.426;99.512;2022-12-01T00:32:29;20.45;;;18.05;;
36797;SDS011;22748;8.426;99.512;2022-12-01T00:35:01;13.63;;;12.23;;
36797;SDS011;22748;8.426;99.512;2022-12-01T00:37:35;16.08;;;13.50;;
36797;SDS011;22748;8.426;99.512;2022-12-01T00:40:08;15.27;;;12.07;;
36797;SDS011;22748;8.426;99.512;2022-12-01T00:42:40;13.43;;;11.43;;
36797;SDS011;22748;8.426;99.512;2022-12-01T00:45:10;16.20;;;13.52;;
36797;SDS011;22748;8.426;99.512;2022-12-01T00:47:41;16.67;;;13.15;;
36797;SDS011;22748;8.426;99.512;2022-12-01T00:50:12;16.92;;;13.40;;
36797;SDS011;22748;8.426;99.512;2022-12-01T00:52:43;14.77;;;13.18;;
36797;SDS011;22748;8.426;99.512;2022-12-01T00:55:15;18.25;;;13.50;;
36797;SDS011;22748;8.426;99.512;2022-12-01T00:57:46;17.67;;;14.23;;
36797;SDS011;22748;8.426;99.512;2022-12-01T01:00:16;18.92;;;16.80;;
36797;SDS011;22748;8.426;99.512;2022-12-01T01:02:48;28.08;;;25.40;;
36797;SDS011;22748;8.426;99.512;2022-12-01T01:05:17;24.38;;;21.77;;
36797;SDS011;22748;8.426;99.512;2022-12-01T01:07:47;21.60;;;16.17;;
36797;SDS011;22748;8.426;99.512;2022-12-01T01:10:20;18.10;;;16.30;;
36797;SDS011;22748;8.426;99.512;2022-12-01T01:12:54;28.40;;;25.27;;
36797;SDS011;22748;8.426;99.512;2022-12-01T01:15:24;26.05;;;19.52;;
36797;SDS011;22748;8.426;99.512;2022-12-01T01:17:53;19.27;;;16.20;;
36797;SDS011;22748;8.426;99.512;2022-12-01T01:20:23;21.15;;;15.88;;
36797;SDS011;22748;8.426;99.512;2022-12-01T01:22:54;17.17;;;14.43;;
36797;SDS011;22748;8.426;99.512;2022-12-01T01:25:25;17.35;;;14.45;;
36797;SDS011;22748;8.426;99.512;2022-12-01T01:27:58;16.33;;;13.93;;
36797;SDS011;22748;8.426;99.512;2022-12-01T01:30:29;15.35;;;13.68;;
36797;SDS011;22748;8.426;99.512;2022-12-01T01:32:58;14.38;;;12.98;;
36797;SDS011;22748;8.426;99.512;2022-12-01T01:35:30;15.50;;;12.82;;
36797;SDS011;22748;8.426;99.512;2022-12-01T01:38:03;14.45;;;12.88;;
36797;SDS011;22748;8.426;99.512;2022-12-01T01:40:40;13.30;;;12.10;;
36797;SDS011;22748;8.426;99.512;2022-12-01T01:43:13;14.48;;;13.07;;
36797;SDS011;22748;8.426;99.512;2022-12-01T01:45:45;14.90;;;13.20;;
36797;SDS011;22748;8.426;99.512;2022-12-01T01:48:14;16.10;;;13.85;;
36797;SDS011;22748;8.426;99.512;2022-12-01T01:50:44;15.07;;;13.55;;
36797;SDS011;22748;8.426;99.512;2022-12-01T01:53:14;15.77;;;14.20;;
36797;SDS011;22748;8.426;99.512;2022-12-01T01:55:48;17.80;;;15.95;;
36797;SDS011;22748;8.426;99.512;2022-12-01T01:58:20;24.70;;;19.15;;
36797;SDS011;22748;8.426;99.512;2022-12-01T02:00:50;20.90;;;17.92;;
36797;SDS011;22748;8.426;99.512;2022-12-01T02:03:22;22.13;;;17.10;;
36797;SDS011;22748;8.426;99.512;2022-12-01T02:05:56;18.80;;;16.73;;
36797;SDS011;22748;8.426;99.512;2022-12-01T02:08:28;18.88;;;16.95;;
36797;SDS011;22748;8.426;99.512;2022-12-01T02:11:10;18.30;;;16.00;;
36797;SDS011;22748;8.426;99.512;2022-12-01T02:14:04;20.63;;;16.50;;
36797;SDS011;22748;8.426;99.512;2022-12-01T02:16:55;16.48;;;14.93;;
36797;SDS011;22748;8.426;99.512;2022-12-01T02:19:41;14.65;;;13.25;;
36797;SDS011;22748;8.426;99.512;2022-12-01T02:22:26;14.80;;;13.25;;
36797;SDS011;22748;8.426;99.512;2022-12-01T02:25:19;13.90;;;12.60;;
36797;SDS011;22748;8.426;99.512;2022-12-01T02:28:00;14.43;;;13.02;;
36797;SDS011;22748;8.426;99.512;2022-12-01T02:30:55;12.15;;;10.95;;
36797;SDS011;22748;8.426;99.512;2022-12-01T02:33:31;11.43;;;9.45;;
36797;SDS011;22748;8.426;99.512;2022-12-01T02:36:07;10.68;;;9.50;;
36797;SDS011;22748;8.426;99.512;2022-12-01T02:38:45;10.23;;;8.93;;
36797;SDS011;22748;8.426;99.512;2022-12-01T02:41:23;9.15;;;8.35;;
36797;SDS011;22748;8.426;99.512;2022-12-01T02:43:57;9.27;;;8.35;;
36797;SDS011;22748;8.426;99.512;2022-12-01T02:46:36;26.02;;;18.60;;
36797;SDS011;22748;8.426;99.512;2022-12-01T02:49:12;15.60;;;13.45;;
36797;SDS011;22748;8.426;99.512;2022-12-01T02:51:46;11.68;;;10.18;;
36797;SDS011;22748;8.426;99.512;2022-12-01T02:54:19;11.18;;;10.07;;
36797;SDS011;22748;8.426;99.512;2022-12-01T02:56:51;18.10;;;10.40;;
36797;SDS011;22748;8.426;99.512;2022-12-01T02:59:25;15.25;;;11.52;;
36797;SDS011;22748;8.426;99.512;2022-12-01T03:02:02;13.68;;;12.00;;
36797;SDS011;22748;8.426;99.512;2022-12-01T03:04:43;18.83;;;12.32;;
36797;SDS011;22748;8.426;99.512;2022-12-01T03:07:30;15.65;;;12.77;;
36797;SDS011;22748;8.426;99.512;2022-12-01T03:10:13;23.10;;;12.25;;
36797;SDS011;22748;8.426;99.512;2022-12-01T03:12:57;19.98;;;12.68;;
36797;SDS011;22748;8.426;99.512;2022-12-01T03:15:37;35.17;;;31.42;;
36797;SDS011;22748;8.426;99.512;2022-12-01T03:18:18;29.38;;;26.95;;
36797;SDS011;22748;8.426;99.512;2022-12-01T03:21:00;67.97;;;62.55;;
36797;SDS011;22748;8.426;99.512;2022-12-01T03:23:37;26.80;;;24.23;;
36797;SDS011;22748;8.426;99.512;2022-12-01T03:26:10;79.90;;;73.40;;
36797;SDS011;22748;8.426;99.512;2022-12-01T03:28:49;50.70;;;46.33;;
36797;SDS011;22748;8.426;99.512;2022-12-01T03:31:24;67.85;;;61.78;;
36797;SDS011;22748;8.426;99.512;2022-12-01T03:33:59;15.13;;;12.20;;
36797;SDS011;22748;8.426;99.512;2022-12-01T03:36:32;17.08;;;12.48;;
36797;SDS011;22748;8.426;99.512;2022-12-01T03:39:07;14.13;;;10.70;;
36797;SDS011;22748;8.426;99.512;2022-12-01T03:41:44;13.18;;;11.73;;
36797;SDS011;22748;8.426;99.512;2022-12-01T03:44:21;15.45;;;11.57;;
36797;SDS011;22748;8.426;99.512;2022-12-01T03:47:00;12.82;;;11.63;;
36797;SDS011;22748;8.426;99.512;2022-12-01T03:49:36;28.38;;;20.20;;
36797;SDS011;22748;8.426;99.512;2022-12-01T03:52:12;19.50;;;16.48;;
36797;SDS011;22748;8.426;99.512;2022-12-01T03:54:51;11.07;;;9.98;;
36797;SDS011;22748;8.426;99.512;2022-12-01T03:57:34;13.43;;;10.80;;
36797;SDS011;22748;8.426;99.512;2022-12-01T04:00:11;18.38;;;16.60;;
36797;SDS011;22748;8.426;99.512;2022-12-01T04:02:42;16.88;;;15.10;;
36797;SDS011;22748;8.426;99.512;2022-12-01T04:05:17;13.68;;;11.57;;
36797;SDS011;22748;8.426;99.512;2022-12-01T04:07:47;15.07;;;12.77;;
36797;SDS011;22748;8.426;99.512;2022-12-01T04:10:18;20.90;;;18.65;;
36797;SDS011;22748;8.426;99.512;2022-12-01T04:12:49;22.10;;;19.77;;
36797;SDS011;22748;8.426;99.512;2022-12-01T04:15:26;17.65;;;15.57;;
36797;SDS011;22748;8.426;99.512;2022-12-01T04:18:00;17.13;;;12.65;;
36797;SDS011;22748;8.426;99.512;2022-12-01T04:20:33;15.27;;;13.65;;
36797;SDS011;22748;8.426;99.512;2022-12-01T04:23:02;13.02;;;11.73;;
36797;SDS011;22748;8.426;99.512;2022-12-01T04:25:33;14.15;;;12.60;;
36797;SDS011;22748;8.426;99.512;2022-12-01T04:28:04;13.18;;;11.70;;
36797;SDS011;22748;8.426;99.512;2022-12-01T04:30:33;13.00;;;11.90;;
36797;SDS011;22748;8.426;99.512;2022-12-01T04:33:04;13.02;;;11.73;;
36797;SDS011;22748;8.426;99.512;2022-12-01T04:35:37;14.32;;;12.93;;
36797;SDS011;22748;8.426;99.512;2022-12-01T04:38:08;13.73;;;12.10;;
36797;SDS011;22748;8.426;99.512;2022-12-01T04:40:40;14.52;;;13.02;;
36797;SDS011;22748;8.426;99.512;2022-12-01T04:45:42;16.30;;;12.60;;
36797;SDS011;22748;8.426;99.512;2022-12-01T04:48:12;15.20;;;12.52;;
36797;SDS011;22748;8.426;99.512;2022-12-01T04:50:46;13.55;;;12.35;;
36797;SDS011;22748;8.426;99.512;2022-12-01T04:53:17;12.55;;;11.25;;
36797;SDS011;22748;8.426;99.512;2022-12-01T04:55:48;12.55;;;11.15;;
36797;SDS011;22748;8.426;99.512;2022-12-01T05:00:47;16.40;;;11.90;;
36797;SDS011;22748;8.426;99.512;2022-12-01T05:03:17;13.85;;;11.82;;
36797;SDS011;22748;8.426;99.512;2022-12-01T05:05:52;14.73;;;12.45;;
36797;SDS011;22748;8.426;99.512;2022-12-01T05:08:32;14.00;;;12.70;;
36797;SDS011;22748;8.426;99.512;2022-12-01T05:11:09;14.52;;;12.77;;
36797;SDS011;22748;8.426;99.512;2022-12-01T05:13:55;13.77;;;12.45;;
36797;SDS011;22748;8.426;99.512;2022-12-01T05:16:30;12.77;;;11.68;;
36797;SDS011;22748;8.426;99.512;2022-12-01T05:19:10;13.52;;;12.30;;
36797;SDS011;22748;8.426;99.512;2022-12-01T05:21:53;12.98;;;11.73;;
36797;SDS011;22748;8.426;99.512;2022-12-01T05:24:23;12.98;;;11.77;;
36797;SDS011;22748;8.426;99.512;2022-12-01T05:26:53;11.32;;;10.20;;
36797;SDS011;22748;8.426;99.512;2022-12-01T05:29:23;12.27;;;9.73;;
36797;SDS011;22748;8.426;99.512;2022-12-01T05:31:53;9.93;;;8.45;;
36797;SDS011;22748;8.426;99.512;2022-12-01T05:34:22;12.07;;;8.50;;
36797;SDS011;22748;8.426;99.512;2022-12-01T05:36:54;9.63;;;8.60;;
36797;SDS011;22748;8.426;99.512;2022-12-01T05:39:24;9.88;;;8.10;;
36797;SDS011;22748;8.426;99.512;2022-12-01T05:41:54;9.68;;;8.43;;
36797;SDS011;22748;8.426;99.512;2022-12-01T05:44:28;9.40;;;7.35;;
36797;SDS011;22748;8.426;99.512;2022-12-01T05:46:57;10.02;;;8.18;;
36797;SDS011;22748;8.426;99.512;2022-12-01T05:49:27;10.60;;;8.10;;
36797;SDS011;22748;8.426;99.512;2022-12-01T05:51:59;14.82;;;8.40;;
36797;SDS011;22748;8.426;99.512;2022-12-01T05:54:31;17.42;;;11.15;;
36797;SDS011;22748;8.426;99.512;2022-12-01T05:57:02;22.92;;;11.80;;
36797;SDS011;22748;8.426;99.512;2022-12-01T05:59:31;14.60;;;10.13;;
36797;SDS011;22748;8.426;99.512;2022-12-01T06:02:01;11.30;;;10.10;;
36797;SDS011;22748;8.426;99.512;2022-12-01T06:04:33;12.32;;;10.05;;
36797;SDS011;22748;8.426;99.512;2022-12-01T06:07:07;12.68;;;11.25;;
36797;SDS011;22748;8.426;99.512;2022-12-01T06:09:38;11.32;;;10.23;;
36797;SDS011;22748;8.426;99.512;2022-12-01T06:12:12;11.77;;;10.57;;
36797;SDS011;22748;8.426;99.512;2022-12-01T06:14:45;12.70;;;10.55;;
36797;SDS011;22748;8.426;99.512;2022-12-01T06:17:15;11.75;;;10.32;;
36797;SDS011;22748;8.426;99.512;2022-12-01T06:19:47;13.30;;;11.18;;
36797;SDS011;22748;8.426;99.512;2022-12-01T06:24:49;11.38;;;10.25;;
36797;SDS011;22748;8.426;99.512;2022-12-01T06:27:20;11.68;;;10.57;;
36797;SDS011;22748;8.426;99.512;2022-12-01T06:29:51;12.43;;;10.75;;
36797;SDS011;22748;8.426;99.512;2022-12-01T06:32:22;14.15;;;11.88;;
36797;SDS011;22748;8.426;99.512;2022-12-01T06:34:52;17.10;;;12.38;;
36797;SDS011;22748;8.426;99.512;2022-12-01T06:37:25;14.10;;;11.57;;
36797;SDS011;22748;8.426;99.512;2022-12-01T06:39:55;12.38;;;10.18;;
36797;SDS011;22748;8.426;99.512;2022-12-01T06:42:27;15.50;;;11.10;;
36797;SDS011;22748;8.426;99.512;2022-12-01T06:45:00;16.55;;;12.57;;
36797;SDS011;22748;8.426;99.512;2022-12-01T06:47:30;13.48;;;11.85;;
36797;SDS011;22748;8.426;99.512;2022-12-01T06:50:01;13.13;;;11.70;;
36797;SDS011;22748;8.426;99.512;2022-12-01T06:52:34;12.55;;;10.70;;
36797;SDS011;22748;8.426;99.512;2022-12-01T07:00:08;11.73;;;10.52;;
36797;SDS011;22748;8.426;99.512;2022-12-01T07:02:39;12.43;;;10.77;;
36797;SDS011;22748;8.426;99.512;2022-12-01T07:05:11;12.43;;;11.13;;
36797;SDS011;22748;8.426;99.512;2022-12-01T07:07:44;13.07;;;11.55;;
36797;SDS011;22748;8.426;99.512;2022-12-01T07:10:16;12.60;;;11.30;;
36797;SDS011;22748;8.426;99.512;2022-12-01T07:12:49;12.32;;;11.13;;
36797;SDS011;22748;8.426;99.512;2022-12-01T07:15:20;14.82;;;11.80;;
36797;SDS011;22748;8.426;99.512;2022-12-01T07:17:50;13.25;;;11.85;;
36797;SDS011;22748;8.426;99.512;2022-12-01T07:20:19;14.85;;;12.18;;
36797;SDS011;22748;8.426;99.512;2022-12-01T07:22:53;12.80;;;11.55;;
36797;SDS011;22748;8.426;99.512;2022-12-01T07:25:24;26.70;;;19.48;;
36797;SDS011;22748;8.426;99.512;2022-12-01T07:27:55;46.60;;;31.33;;
36797;SDS011;22748;8.426;99.512;2022-12-01T07:30:25;31.20;;;20.98;;
36797;SDS011;22748;8.426;99.512;2022-12-01T07:32:55;94.15;;;65.30;;
36797;SDS011;22748;8.426;99.512;2022-12-01T07:35:25;51.58;;;36.42;;
36797;SDS011;22748;8.426;99.512;2022-12-01T07:37:58;59.40;;;43.25;;
36797;SDS011;22748;8.426;99.512;2022-12-01T07:40:30;50.60;;;37.80;;
36797;SDS011;22748;8.426;99.512;2022-12-01T07:43:02;41.78;;;31.13;;
36797;SDS011;22748;8.426;99.512;2022-12-01T07:45:33;29.35;;;24.80;;
36797;SDS011;22748;8.426;99.512;2022-12-01T07:48:03;25.58;;;21.17;;
36797;SDS011;22748;8.426;99.512;2022-12-01T07:50:32;19.52;;;16.20;;
36797;SDS011;22748;8.426;99.512;2022-12-01T07:53:04;16.20;;;14.48;;
36797;SDS011;22748;8.426;99.512;2022-12-01T07:55:34;13.55;;;12.20;;
36797;SDS011;22748;8.426;99.512;2022-12-01T07:58:05;12.50;;;11.15;;
36797;SDS011;22748;8.426;99.512;2022-12-01T08:00:35;15.55;;;11.00;;
36797;SDS011;22748;8.426;99.512;2022-12-01T08:03:05;11.23;;;10.02;;
36797;SDS011;22748;8.426;99.512;2022-12-01T08:05:35;10.88;;;9.75;;
36797;SDS011;22748;8.426;99.512;2022-12-01T08:08:07;10.82;;;9.75;;
36797;SDS011;22748;8.426;99.512;2022-12-01T08:10:36;11.50;;;10.38;;
36797;SDS011;22748;8.426;99.512;2022-12-01T08:13:07;13.35;;;10.05;;
36797;SDS011;22748;8.426;99.512;2022-12-01T08:15:37;11.75;;;10.38;;
36797;SDS011;22748;8.426;99.512;2022-12-01T08:18:07;10.05;;;8.90;;
36797;SDS011;22748;8.426;99.512;2022-12-01T08:20:38;10.98;;;9.43;;
36797;SDS011;22748;8.426;99.512;2022-12-01T08:23:10;10.73;;;9.32;;
36797;SDS011;22748;8.426;99.512;2022-12-01T08:25:43;10.48;;;8.25;;
36797;SDS011;22748;8.426;99.512;2022-12-01T08:28:15;8.65;;;7.70;;
36797;SDS011;22748;8.426;99.512;2022-12-01T08:30:45;8.80;;;7.75;;
36797;SDS011;22748;8.426;99.512;2022-12-01T08:33:16;8.27;;;7.45;;
36797;SDS011;22748;8.426;99.512;2022-12-01T08:35:53;7.50;;;6.90;;
36797;SDS011;22748;8.426;99.512;2022-12-01T08:38:24;8.93;;;7.40;;
36797;SDS011;22748;8.426;99.512;2022-12-01T08:41:02;14.95;;;13.50;;
36797;SDS011;22748;8.426;99.512;2022-12-01T08:43:35;20.10;;;15.80;;
36797;SDS011;22748;8.426;99.512;2022-12-01T08:46:08;18.65;;;16.13;;
36797;SDS011;22748;8.426;99.512;2022-12-01T08:48:40;21.80;;;18.33;;
36797;SDS011;22748;8.426;99.512;2022-12-01T08:51:10;16.05;;;14.35;;
36797;SDS011;22748;8.426;99.512;2022-12-01T08:53:44;13.95;;;12.18;;
36797;SDS011;22748;8.426;99.512;2022-12-01T08:56:17;14.25;;;11.27;;
36797;SDS011;22748;8.426;99.512;2022-12-01T09:01:16;11.13;;;8.73;;
36797;SDS011;22748;8.426;99.512;2022-12-01T09:03:47;17.30;;;8.07;;
36797;SDS011;22748;8.426;99.512;2022-12-01T09:06:30;10.45;;;8.77;;
36797;SDS011;22748;8.426;99.512;2022-12-01T09:09:04;9.73;;;8.43;;
36797;SDS011;22748;8.426;99.512;2022-12-01T09:11:35;11.27;;;8.63;;
36797;SDS011;22748;8.426;99.512;2022-12-01T09:14:06;11.67;;;9.10;;
36797;SDS011;22748;8.426;99.512;2022-12-01T09:16:36;10.57;;;9.48;;
36797;SDS011;22748;8.426;99.512;2022-12-01T09:21:37;10.90;;;8.15;;
36797;SDS011;22748;8.426;99.512;2022-12-01T09:24:13;11.10;;;9.15;;
36797;SDS011;22748;8.426;99.512;2022-12-01T09:26:46;10.85;;;8.88;;
36797;SDS011;22748;8.426;99.512;2022-12-01T09:29:19;12.52;;;10.30;;
36797;SDS011;22748;8.426;99.512;2022-12-01T09:31:49;22.55;;;13.32;;
36797;SDS011;22748;8.426;99.512;2022-12-01T09:34:30;19.17;;;12.10;;
36797;SDS011;22748;8.426;99.512;2022-12-01T09:37:00;17.00;;;12.18;;
36797;SDS011;22748;8.426;99.512;2022-12-01T09:39:31;35.35;;;13.20;;
36797;SDS011;22748;8.426;99.512;2022-12-01T09:42:02;28.77;;;12.98;;
36797;SDS011;22748;8.426;99.512;2022-12-01T09:44:38;25.67;;;13.70;;
36797;SDS011;22748;8.426;99.512;2022-12-01T09:47:15;22.10;;;13.57;;
36797;SDS011;22748;8.426;99.512;2022-12-01T09:49:51;24.25;;;14.20;;
36797;SDS011;22748;8.426;99.512;2022-12-01T09:52:27;15.15;;;13.55;;
36797;SDS011;22748;8.426;99.512;2022-12-01T09:55:09;20.85;;;14.70;;
36797;SDS011;22748;8.426;99.512;2022-12-01T09:57:42;18.95;;;13.63;;
36797;SDS011;22748;8.426;99.512;2022-12-01T10:00:19;19.33;;;13.10;;
36797;SDS011;22748;8.426;99.512;2022-12-01T10:02:51;15.48;;;13.27;;
36797;SDS011;22748;8.426;99.512;2022-12-01T10:05:30;20.10;;;12.88;;
36797;SDS011;22748;8.426;99.512;2022-12-01T10:08:10;14.02;;;12.45;;
36797;SDS011;22748;8.426;99.512;2022-12-01T10:10:45;14.38;;;11.07;;
36797;SDS011;22748;8.426;99.512;2022-12-01T10:13:16;12.70;;;11.18;;
36797;SDS011;22748;8.426;99.512;2022-12-01T10:15:52;12.23;;;11.05;;
36797;SDS011;22748;8.426;99.512;2022-12-01T10:18:33;12.77;;;11.30;;
36797;SDS011;22748;8.426;99.512;2022-12-01T10:21:18;18.40;;;10.60;;
36797;SDS011;22748;8.426;99.512;2022-12-01T10:24:14;16.92;;;11.23;;
36797;SDS011;22748;8.426;99.512;2022-12-01T10:27:00;12.93;;;10.52;;
36797;SDS011;22748;8.426;99.512;2022-12-01T10:29:40;11.40;;;10.20;;
36797;SDS011;22748;8.426;99.512;2022-12-01T10:32:17;11.00;;;9.73;;
36797;SDS011;22748;8.426;99.512;2022-12-01T10:34:52;14.13;;;10.68;;
36797;SDS011;22748;8.426;99.512;2022-12-01T10:37:24;19.55;;;11.48;;
36797;SDS011;22748;8.426;99.512;2022-12-01T10:39:57;20.70;;;11.80;;
36797;SDS011;22748;8.426;99.512;2022-12-01T10:42:33;18.88;;;10.82;;
36797;SDS011;22748;8.426;99.512;2022-12-01T10:45:09;13.52;;;10.73;;
36797;SDS011;22748;8.426;99.512;2022-12-01T10:50:35;19.58;;;12.23;;
36797;SDS011;22748;8.426;99.512;2022-12-01T10:53:08;29.13;;;15.05;;
36797;SDS011;22748;8.426;99.512;2022-12-01T10:56:02;29.17;;;14.57;;
36797;SDS011;22748;8.426;99.512;2022-12-01T10:58:42;19.75;;;14.35;;
36797;SDS011;22748;8.426;99.512;2022-12-01T11:01:21;17.23;;;15.30;;
36797;SDS011;22748;8.426;99.512;2022-12-01T11:03:55;28.58;;;16.33;;
36797;SDS011;22748;8.426;99.512;2022-12-01T11:06:27;19.55;;;14.50;;
36797;SDS011;22748;8.426;99.512;2022-12-01T11:11:30;23.88;;;15.63;;
36797;SDS011;22748;8.426;99.512;2022-12-01T11:14:16;18.30;;;15.07;;
36797;SDS011;22748;8.426;99.512;2022-12-01T11:16:49;16.90;;;14.25;;
36797;SDS011;22748;8.426;99.512;2022-12-01T11:19:27;16.50;;;14.70;;
36797;SDS011;22748;8.426;99.512;2022-12-01T11:22:00;17.52;;;15.02;;
36797;SDS011;22748;8.426;99.512;2022-12-01T11:24:55;23.73;;;16.65;;
36797;SDS011;22748;8.426;99.512;2022-12-01T11:27:31;24.05;;;16.98;;
36797;SDS011;22748;8.426;99.512;2022-12-01T11:30:19;43.75;;;28.20;;
36797;SDS011;22748;8.426;99.512;2022-12-01T11:32:52;31.73;;;25.02;;
36797;SDS011;22748;8.426;99.512;2022-12-01T11:35:26;24.98;;;21.02;;
36797;SDS011;22748;8.426;99.512;2022-12-01T11:37:59;34.85;;;24.40;;
36797;SDS011;22748;8.426;99.512;2022-12-01T11:40:32;38.22;;;26.67;;
36797;SDS011;22748;8.426;99.512;2022-12-01T11:43:22;38.80;;;27.88;;
36797;SDS011;22748;8.426;99.512;2022-12-01T11:45:58;40.28;;;25.98;;
36797;SDS011;22748;8.426;99.512;2022-12-01T11:48:32;35.75;;;24.02;;
36797;SDS011;22748;8.426;99.512;2022-12-01T11:51:06;27.52;;;21.05;;
36797;SDS011;22748;8.426;99.512;2022-12-01T11:53:39;28.10;;;20.13;;
36797;SDS011;22748;8.426;99.512;2022-12-01T11:56:15;28.48;;;19.95;;
36797;SDS011;22748;8.426;99.512;2022-12-01T11:58:52;27.02;;;20.95;;
36797;SDS011;22748;8.426;99.512;2022-12-01T12:01:30;26.70;;;21.88;;
36797;SDS011;22748;8.426;99.512;2022-12-01T12:04:14;30.38;;;23.55;;
36797;SDS011;22748;8.426;99.512;2022-12-01T12:07:03;30.90;;;23.50;;
36797;SDS011;22748;8.426;99.512;2022-12-01T12:09:54;28.63;;;22.77;;
36797;SDS011;22748;8.426;99.512;2022-12-01T12:12:47;31.88;;;21.83;;
36797;SDS011;22748;8.426;99.512;2022-12-01T12:15:32;23.75;;;20.67;;
36797;SDS011;22748;8.426;99.512;2022-12-01T12:18:19;29.38;;;21.42;;
36797;SDS011;22748;8.426;99.512;2022-12-01T12:21:05;29.40;;;21.58;;
36797;SDS011;22748;8.426;99.512;2022-12-01T12:23:53;34.50;;;22.17;;
36797;SDS011;22748;8.426;99.512;2022-12-01T12:26:42;29.85;;;23.45;;
36797;SDS011;22748;8.426;99.512;2022-12-01T12:29:24;30.52;;;23.80;;
36797;SDS011;22748;8.426;99.512;2022-12-01T12:32:07;26.55;;;23.00;;
36797;SDS011;22748;8.426;99.512;2022-12-01T12:35:01;27.33;;;22.83;;
36797;SDS011;22748;8.426;99.512;2022-12-01T12:37:43;28.77;;;23.17;;
36797;SDS011;22748;8.426;99.512;2022-12-01T12:40:28;28.17;;;21.02;;
36797;SDS011;22748;8.426;99.512;2022-12-01T12:43:20;27.65;;;21.90;;
36797;SDS011;22748;8.426;99.512;2022-12-01T12:45:59;27.35;;;21.52;;
36797;SDS011;22748;8.426;99.512;2022-12-01T12:48:36;31.08;;;20.30;;
36797;SDS011;22748;8.426;99.512;2022-12-01T12:51:26;24.85;;;19.15;;
36797;SDS011;22748;8.426;99.512;2022-12-01T12:54:12;29.38;;;18.60;;
36797;SDS011;22748;8.426;99.512;2022-12-01T12:56:54;25.80;;;17.60;;
36797;SDS011;22748;8.426;99.512;2022-12-01T12:59:54;21.37;;;16.30;;
36797;SDS011;22748;8.426;99.512;2022-12-01T13:02:32;23.15;;;17.65;;
36797;SDS011;22748;8.426;99.512;2022-12-01T13:05:13;26.25;;;21.25;;
36797;SDS011;22748;8.426;99.512;2022-12-01T13:07:55;27.83;;;22.17;;
36797;SDS011;22748;8.426;99.512;2022-12-01T13:10:33;35.03;;;24.15;;
36797;SDS011;22748;8.426;99.512;2022-12-01T13:13:15;37.60;;;27.27;;
36797;SDS011;22748;8.426;99.512;2022-12-01T13:16:01;37.50;;;26.90;;
36797;SDS011;22748;8.426;99.512;2022-12-01T13:18:52;33.65;;;26.05;;
36797;SDS011;22748;8.426;99.512;2022-12-01T13:21:34;36.58;;;25.63;;
36797;SDS011;22748;8.426;99.512;2022-12-01T13:24:16;36.53;;;25.92;;
36797;SDS011;22748;8.426;99.512;2022-12-01T13:26:56;37.25;;;27.52;;
36797;SDS011;22748;8.426;99.512;2022-12-01T13:29:38;33.65;;;26.40;;
36797;SDS011;22748;8.426;99.512;2022-12-01T13:32:24;30.50;;;25.80;;
36797;SDS011;22748;8.426;99.512;2022-12-01T13:34:59;29.58;;;26.13;;
36797;SDS011;22748;8.426;99.512;2022-12-01T13:37:33;30.15;;;25.95;;
36797;SDS011;22748;8.426;99.512;2022-12-01T13:40:18;31.23;;;24.23;;
36797;SDS011;22748;8.426;99.512;2022-12-01T13:42:58;27.17;;;22.58;;
36797;SDS011;22748;8.426;99.512;2022-12-01T13:45:32;26.73;;;23.92;;
36797;SDS011;22748;8.426;99.512;2022-12-01T13:48:07;28.95;;;24.45;;
36797;SDS011;22748;8.426;99.512;2022-12-01T13:50:59;26.98;;;24.15;;
36797;SDS011;22748;8.426;99.512;2022-12-01T13:53:32;27.40;;;24.48;;
36797;SDS011;22748;8.426;99.512;2022-12-01T13:59:10;54.35;;;38.30;;
36797;SDS011;22748;8.426;99.512;2022-12-01T14:02:14;38.83;;;31.58;;
36797;SDS011;22748;8.426;99.512;2022-12-01T14:04:46;41.40;;;30.95;;
36797;SDS011;22748;8.426;99.512;2022-12-01T14:10:17;34.65;;;26.20;;
36797;SDS011;22748;8.426;99.512;2022-12-01T14:12:59;32.05;;;24.35;;
36797;SDS011;22748;8.426;99.512;2022-12-01T14:15:36;29.20;;;23.65;;
36797;SDS011;22748;8.426;99.512;2022-12-01T14:21:03;26.60;;;20.65;;
36797;SDS011;22748;8.426;99.512;2022-12-01T14:23:38;25.08;;;21.58;;
36797;SDS011;22748;8.426;99.512;2022-12-01T14:26:30;30.50;;;20.58;;
36797;SDS011;22748;8.426;99.512;2022-12-01T14:32:17;29.35;;;23.83;;
36797;SDS011;22748;8.426;99.512;2022-12-01T14:34:49;31.98;;;27.77;;
36797;SDS011;22748;8.426;99.512;2022-12-01T14:37:26;38.33;;;30.92;;
36797;SDS011;22748;8.426;99.512;2022-12-01T14:40:20;36.78;;;27.65;;
36797;SDS011;22748;8.426;99.512;2022-12-01T14:42:56;29.15;;;25.70;;
36797;SDS011;22748;8.426;99.512;2022-12-01T14:45:41;29.77;;;24.83;;
36797;SDS011;22748;8.426;99.512;2022-12-01T14:48:33;28.05;;;23.92;;
36797;SDS011;22748;8.426;99.512;2022-12-01T14:51:11;28.88;;;23.10;;
36797;SDS011;22748;8.426;99.512;2022-12-01T14:53:47;29.33;;;22.73;;
36797;SDS011;22748;8.426;99.512;2022-12-01T14:56:22;28.27;;;23.23;;
36797;SDS011;22748;8.426;99.512;2022-12-01T14:58:55;27.17;;;21.70;;
36797;SDS011;22748;8.426;99.512;2022-12-01T15:01:28;27.98;;;22.08;;
36797;SDS011;22748;8.426;99.512;2022-12-01T15:04:04;25.95;;;22.45;;
36797;SDS011;22748;8.426;99.512;2022-12-01T15:06:35;30.25;;;22.10;;
36797;SDS011;22748;8.426;99.512;2022-12-01T15:09:09;25.50;;;21.98;;
36797;SDS011;22748;8.426;99.512;2022-12-01T15:11:49;28.38;;;22.20;;
36797;SDS011;22748;8.426;99.512;2022-12-01T15:14:27;27.45;;;22.58;;
36797;SDS011;22748;8.426;99.512;2022-12-01T15:17:01;25.63;;;21.80;;
36797;SDS011;22748;8.426;99.512;2022-12-01T15:19:39;25.67;;;21.73;;
36797;SDS011;22748;8.426;99.512;2022-12-01T15:22:11;29.67;;;23.95;;
36797;SDS011;22748;8.426;99.512;2022-12-01T15:24:44;31.92;;;25.10;;
36797;SDS011;22748;8.426;99.512;2022-12-01T15:27:27;31.30;;;24.85;;
36797;SDS011;22748;8.426;99.512;2022-12-01T15:30:01;32.42;;;26.73;;
36797;SDS011;22748;8.426;99.512;2022-12-01T15:32:34;30.80;;;26.23;;
36797;SDS011;22748;8.426;99.512;2022-12-01T15:35:09;29.70;;;23.55;;
36797;SDS011;22748;8.426;99.512;2022-12-01T15:37:48;28.98;;;25.25;;
36797;SDS011;22748;8.426;99.512;2022-12-01T15:40:21;30.63;;;25.95;;
36797;SDS011;22748;8.426;99.512;2022-12-01T15:43:00;30.73;;;25.13;;
36797;SDS011;22748;8.426;99.512;2022-12-01T15:45:41;29.55;;;25.05;;
36797;SDS011;22748;8.426;99.512;2022-12-01T15:48:16;29.55;;;24.63;;